Afrodite — CURM3 — position and weather

sailwx.info

Track history (hours):
 
Tides and Currents Weather Stations Pressure Air Temp Water Temp Dewpoint Dewpoint Depression Visibility Wind Speed Wind Dir Waves Ship Positions

Afrodite

Last reported at 2018-Apr-23 23:04 UTC. Time now 2018-Apr-25 06:51 UTC.
Position N 39°21' W 009°29'.

Length 26 m.

Type: Fishing. MMSI: 263500170.

Date/timePositionNaut miles runAvg speedWind from/ knotsBaromVisibWave heightAir tempDewpointWater temp
2018-Apr-23 23:04N 39°21' W 009°29'110.3
2018-Apr-23 22:58N 39°21' W 009°31'5 9.9
2018-Apr-23 22:30N 39°21' W 009°37'3 0.4
2018-Apr-23 15:49N 39°22' W 009°39'  
2018-Apr-20 20:45N 39°21' W 009°25'4 8.6
2018-Apr-20 20:21N 39°21' W 009°29'410.6
2018-Apr-20 20:00N 39°22' W 009°34'4 0.1
2018-Apr-19 07:29N 39°22' W 009°29'8 3.9
2018-Apr-19 05:22N 39°23' W 009°40'0 0.6
2018-Apr-19 04:58N 39°23' W 009°40'8 1.1
2018-Apr-18 21:50N 39°21' W 009°29'3 9.8
2018-Apr-18 21:29N 39°22' W 009°34'5 1.4
2018-Apr-18 17:53N 39°23' W 009°40'1 0.7
2018-Apr-18 17:07N 39°23' W 009°40'0 3.6
2018-Apr-18 17:00N 39°23' W 009°41'3 5.5
2018-Apr-18 16:29N 39°22' W 009°37'4 8.7
2018-Apr-18 16:00N 39°22' W 009°32'4 0.5
2018-Apr-18 07:48N 39°21' W 009°26'3 9.6
2018-Apr-18 07:30N 39°22' W 009°30'5 9.1
2018-Apr-18 07:00N 39°23' W 009°36'9 1.1
2018-Apr-17 22:28N 39°20' W 009°24'610.7
2018-Apr-17 21:53N 39°21' W 009°32'7 2.6
2018-Apr-17 19:23N 39°23' W 009°40'1 1.9
2018-Apr-17 18:59N 39°23' W 009°39'0 0.8
2018-Apr-17 18:30N 39°23' W 009°39'0 0.9
2018-Apr-17 17:59N 39°23' W 009°40'0 0.7
2018-Apr-17 17:26N 39°23' W 009°40'3 6.0
2018-Apr-17 17:00N 39°22' W 009°37'6 0.7
2018-Apr-17 08:24N 39°22' W 009°30'  
Track history (hours):
 
Tides and Currents Weather Stations Pressure Air Temp Water Temp Dewpoint Dewpoint Depression Visibility Wind Speed Wind Dir Waves Ship Positions

Afrodite

Last reported at 2018-Apr-23 23:04 UTC. Time now 2018-Apr-25 06:51 UTC.
Position N 39°21' W 009°29'.

Length 26 m.

Type: Fishing. MMSI: 263500170.

Date/timePositionNaut miles runAvg speedWind from/ knotsBaromVisibWave heightAir tempDewpointWater temp
2018-Apr-23 23:04N 39°21' W 009°29'110.3
2018-Apr-23 22:58N 39°21' W 009°31'5 9.9
2018-Apr-23 22:30N 39°21' W 009°37'3 0.4
2018-Apr-23 15:49N 39°22' W 009°39'  
2018-Apr-20 20:45N 39°21' W 009°25'4 8.6
2018-Apr-20 20:21N 39°21' W 009°29'410.6
2018-Apr-20 20:00N 39°22' W 009°34'4 0.1
2018-Apr-19 07:29N 39°22' W 009°29'8 3.9
2018-Apr-19 05:22N 39°23' W 009°40'0 0.6
2018-Apr-19 04:58N 39°23' W 009°40'8 1.1
2018-Apr-18 21:50N 39°21' W 009°29'3 9.8
2018-Apr-18 21:29N 39°22' W 009°34'5 1.4
2018-Apr-18 17:53N 39°23' W 009°40'1 0.7
2018-Apr-18 17:07N 39°23' W 009°40'0 3.6
2018-Apr-18 17:00N 39°23' W 009°41'3 5.5
2018-Apr-18 16:29N 39°22' W 009°37'4 8.7
2018-Apr-18 16:00N 39°22' W 009°32'4 0.5
2018-Apr-18 07:48N 39°21' W 009°26'3 9.6
2018-Apr-18 07:30N 39°22' W 009°30'5 9.1
2018-Apr-18 07:00N 39°23' W 009°36'9 1.1
2018-Apr-17 22:28N 39°20' W 009°24'610.7
2018-Apr-17 21:53N 39°21' W 009°32'7 2.6
2018-Apr-17 19:23N 39°23' W 009°40'1 1.9
2018-Apr-17 18:59N 39°23' W 009°39'0 0.8
2018-Apr-17 18:30N 39°23' W 009°39'0 0.9
2018-Apr-17 17:59N 39°23' W 009°40'0 0.7
2018-Apr-17 17:26N 39°23' W 009°40'3 6.0
2018-Apr-17 17:00N 39°22' W 009°37'6 0.7
2018-Apr-17 08:24N 39°22' W 009°30'  

Dump ship's entire track history